createdAt,value
2017-04-25T04:00:52.819Z,0
2017-04-25T04:01:18.301Z,0
2017-04-25T04:01:43.745Z,0
2017-04-25T04:02:09.270Z,0
2017-04-25T04:03:39.621Z,0
2017-04-25T04:04:05.064Z,0
2017-04-25T04:04:31.214Z,0
2017-04-25T04:04:56.021Z,0
2017-04-25T04:05:21.465Z,0
2017-04-25T04:05:50.220Z,0
2017-04-25T04:06:14.277Z,0
2017-04-25T04:06:40.364Z,0
2017-04-25T04:07:09.716Z,0
2017-04-25T04:07:34.294Z,0
2017-04-25T04:08:01.717Z,0
2017-04-25T04:08:27.253Z,0
2017-04-25T04:08:53.464Z,0
2017-04-25T04:09:18.953Z,0
2017-04-25T04:09:45.896Z,0
2017-04-25T04:10:11.426Z,0
2017-04-25T04:10:38.215Z,0
2017-04-25T04:11:03.222Z,0
2017-04-25T04:11:28.636Z,0
2017-04-25T04:11:55.743Z,0
2017-04-25T04:12:20.379Z,0
2017-04-25T04:12:45.806Z,0
2017-04-25T04:13:11.902Z,0
2017-04-25T04:13:37.865Z,0
2017-04-25T04:14:03.351Z,0
2017-04-25T04:14:30.225Z,0
2017-04-25T04:14:54.250Z,0
2017-04-25T04:15:20.975Z,0
2017-04-25T04:15:46.421Z,5
2017-04-25T04:16:11.869Z,5
2017-04-25T04:16:39.712Z,5
2017-04-25T04:17:05.713Z,5
2017-04-25T04:17:30.833Z,5
2017-04-25T04:17:56.297Z,5
2017-04-25T04:18:21.756Z,5
2017-04-25T04:18:48.739Z,5
2017-04-25T04:19:13.605Z,5
2017-04-25T04:19:39.938Z,5
2017-04-25T04:20:06.161Z,5
2017-04-25T04:20:31.617Z,5
2017-04-25T04:20:58.855Z,5
2017-04-25T04:21:24.981Z,5
2017-04-25T04:21:50.427Z,5
2017-04-25T04:22:16.687Z,5
2017-04-25T04:22:42.102Z,5
2017-04-25T04:23:07.550Z,5
2017-04-25T04:23:33.027Z,5
2017-04-25T04:23:58.501Z,5
2017-04-25T04:24:23.995Z,10
2017-04-25T04:24:49.441Z,10
2017-04-25T04:25:15.879Z,5
2017-04-25T04:25:43.232Z,5
2017-04-25T04:26:10.215Z,5
2017-04-25T04:26:36.214Z,5
2017-04-25T04:27:00.630Z,5
2017-04-25T04:27:26.714Z,10
2017-04-25T04:27:51.495Z,10
2017-04-25T04:28:16.996Z,10
2017-04-25T04:28:43.149Z,10
2017-04-25T04:29:09.159Z,10
2017-04-25T04:29:35.867Z,15
2017-04-25T04:30:01.339Z,15
2017-04-25T04:30:27.719Z,15
2017-04-25T04:30:52.230Z,15
2017-04-25T04:31:18.215Z,15
2017-04-25T04:32:42.687Z,20
2017-04-25T04:33:08.775Z,15
2017-04-25T04:33:36.446Z,15
2017-04-25T04:34:01.883Z,15
2017-04-25T04:34:27.360Z,20
2017-04-25T04:34:55.705Z,20
2017-04-25T04:35:21.147Z,20
2017-04-25T04:35:47.886Z,20
2017-04-25T04:36:13.370Z,20
2017-04-25T04:36:39.540Z,20
2017-04-25T04:37:05.642Z,20
2017-04-25T04:37:32.781Z,20
2017-04-25T04:37:58.290Z,20
2017-04-25T04:38:23.186Z,20
2017-04-25T04:38:48.619Z,20
2017-04-25T04:39:14.946Z,20
2017-04-25T04:39:40.396Z,20
2017-04-25T04:40:05.805Z,15
2017-04-25T04:40:31.279Z,15
2017-04-25T04:40:57.700Z,20
2017-04-25T04:41:23.776Z,15
2017-04-25T04:41:48.617Z,15
2017-04-25T04:42:14.365Z,15
2017-04-25T04:42:39.842Z,15
2017-04-25T04:43:05.330Z,15
2017-04-25T04:43:33.796Z,20
2017-04-25T04:44:01.924Z,25
2017-04-25T04:44:27.387Z,25
2017-04-25T04:44:53.467Z,25
2017-04-25T04:45:18.916Z,25
2017-04-25T04:45:45.045Z,20
2017-04-25T04:46:11.791Z,20
2017-04-25T04:46:36.482Z,25
2017-04-25T04:47:02.783Z,25
2017-04-25T04:47:29.939Z,25
2017-04-25T04:47:56.284Z,25
2017-04-25T04:48:21.711Z,25
2017-04-25T04:48:47.225Z,25
2017-04-25T04:49:14.434Z,20
2017-04-25T04:49:39.872Z,25
2017-04-25T04:50:05.378Z,30
2017-04-25T04:50:30.875Z,35
2017-04-25T04:50:58.276Z,35
2017-04-25T04:51:22.775Z,35
2017-04-25T04:51:50.033Z,35
2017-04-25T04:52:16.304Z,40
2017-04-25T04:52:40.983Z,35
2017-04-25T04:53:06.417Z,35
2017-04-25T04:53:32.812Z,35
2017-04-25T04:53:57.380Z,35
2017-04-25T04:54:24.602Z,30
2017-04-25T04:54:51.281Z,30
2017-04-25T04:55:15.495Z,30
2017-04-25T04:55:40.969Z,30
2017-04-25T04:56:07.139Z,25
2017-04-25T04:56:33.777Z,25
2017-04-25T04:56:58.089Z,25
2017-04-25T04:57:31.790Z,30
2017-04-25T04:57:57.579Z,30
2017-04-25T04:58:23.795Z,35
2017-04-25T04:58:49.286Z,45
2017-04-25T04:59:16.278Z,50
2017-04-25T04:59:40.868Z,55
2017-04-25T05:00:06.350Z,60
2017-04-25T05:00:33.683Z,60
2017-04-25T05:00:59.176Z,60
2017-04-25T05:01:24.629Z,65
2017-04-25T05:01:51.778Z,65
2017-04-25T05:02:17.281Z,65
2017-04-25T05:02:42.172Z,65
2017-04-25T05:03:08.524Z,65
2017-04-25T05:03:34.826Z,65
2017-04-25T05:04:00.812Z,60
2017-04-25T05:04:25.735Z,60
2017-04-25T05:04:51.176Z,55
2017-04-25T05:05:17.593Z,60
2017-04-25T05:05:44.275Z,60
2017-04-25T05:06:09.294Z,65
2017-04-25T05:06:35.613Z,60
2017-04-25T05:07:01.846Z,55
2017-04-25T05:07:26.875Z,55
2017-04-25T05:07:53.869Z,60
2017-04-25T05:08:19.901Z,60
2017-04-25T05:08:45.374Z,55
2017-04-25T05:09:10.839Z,50
2017-04-25T05:09:37.091Z,50
2017-04-25T05:10:02.519Z,55
2017-04-25T05:10:27.968Z,60
2017-04-25T05:10:54.421Z,65
2017-04-25T05:11:21.300Z,60
2017-04-25T05:11:46.805Z,60
2017-04-25T05:12:12.283Z,60
2017-04-25T05:12:45.278Z,65
2017-04-25T05:13:09.833Z,65
2017-04-25T05:13:35.313Z,70
2017-04-25T05:14:01.686Z,75
2017-04-25T05:14:27.163Z,80
2017-04-25T05:14:54.291Z,80
2017-04-25T05:15:18.839Z,80
2017-04-25T05:15:44.801Z,80
2017-04-25T05:16:10.499Z,75
2017-04-25T05:16:37.274Z,70
2017-04-25T05:17:01.404Z,75
2017-04-25T05:17:27.785Z,80
2017-04-25T05:17:53.316Z,75
2017-04-25T05:18:18.753Z,75
2017-04-25T05:18:44.243Z,75
2017-04-25T05:19:10.290Z,70
2017-04-25T05:19:36.020Z,70
2017-04-25T05:20:02.187Z,65
2017-04-25T05:20:29.355Z,65
2017-04-25T05:20:54.839Z,70
2017-04-25T05:21:20.306Z,75
2017-04-25T05:21:46.281Z,80
2017-04-25T05:22:11.906Z,80
2017-04-25T05:22:37.390Z,80
2017-04-25T05:23:03.406Z,80
2017-04-25T05:23:28.923Z,85
2017-04-25T05:23:55.221Z,80
2017-04-25T05:24:22.449Z,85
2017-04-25T05:24:47.915Z,85
2017-04-25T05:25:13.404Z,80
2017-04-25T05:25:38.885Z,80
2017-04-25T05:26:04.317Z,80
2017-04-25T05:26:29.776Z,85
2017-04-25T05:26:55.248Z,85
2017-04-25T05:27:20.743Z,85
2017-04-25T05:27:46.204Z,85
2017-04-25T05:28:11.660Z,85
2017-04-25T05:28:37.129Z,80
2017-04-25T05:29:02.595Z,80
2017-04-25T05:29:28.040Z,80
2017-04-25T05:29:53.527Z,80
2017-04-25T05:30:18.990Z,80
2017-04-25T05:30:44.443Z,85
2017-04-25T05:31:09.902Z,90
2017-04-25T05:31:35.349Z,90
2017-04-25T05:32:00.811Z,95
2017-04-25T05:32:26.280Z,90
2017-04-25T05:32:51.796Z,90
2017-04-25T05:33:17.275Z,90
2017-04-25T05:33:42.763Z,90
2017-04-25T05:34:08.241Z,90
2017-04-25T05:34:33.718Z,95
2017-04-25T05:34:59.179Z,100
2017-04-25T05:35:24.684Z,105
2017-04-25T05:35:50.148Z,105
2017-04-25T05:36:15.631Z,105
2017-04-25T05:36:41.087Z,105
2017-04-25T05:37:06.558Z,100
2017-04-25T05:37:32.078Z,105
2017-04-25T05:37:57.495Z,105
2017-04-25T05:38:22.981Z,105
2017-04-25T05:38:48.434Z,110
2017-04-25T05:39:13.917Z,115
2017-04-25T05:39:39.404Z,120
2017-04-25T05:40:04.902Z,125
2017-04-25T05:40:30.436Z,130
2017-04-25T05:40:55.896Z,135
2017-04-25T05:41:21.359Z,135
2017-04-25T05:41:46.829Z,140
2017-04-25T05:42:12.254Z,130
2017-04-25T05:42:37.741Z,130
2017-04-25T05:43:03.204Z,130
2017-04-25T05:43:28.671Z,130
2017-04-25T05:43:54.141Z,135
2017-04-25T05:44:19.628Z,135
2017-04-25T05:44:45.067Z,135
2017-04-25T05:45:10.545Z,130
2017-04-25T05:45:36.032Z,130
2017-04-25T05:46:01.468Z,125
2017-04-25T05:46:26.930Z,125
2017-04-25T05:46:52.421Z,125
2017-04-25T05:47:17.928Z,125
2017-04-25T05:47:43.319Z,130
2017-04-25T05:48:08.823Z,130
2017-04-25T05:48:34.295Z,135
2017-04-25T05:48:59.766Z,135
2017-04-25T05:49:25.234Z,135
2017-04-25T05:49:50.694Z,135
2017-04-25T05:50:16.164Z,135
2017-04-25T05:50:41.634Z,135
2017-04-25T05:51:07.119Z,135
2017-04-25T05:51:32.580Z,140
2017-04-25T05:51:58.057Z,145
2017-04-25T05:52:23.521Z,145
2017-04-25T05:52:49.021Z,150
2017-04-25T05:53:14.507Z,155
2017-04-25T05:53:40.008Z,165
2017-04-25T05:54:05.460Z,170
2017-04-25T05:54:30.930Z,180
2017-04-25T05:54:56.372Z,170
2017-04-25T05:55:21.880Z,175
2017-04-25T05:55:47.349Z,170
2017-04-25T05:56:12.807Z,175
2017-04-25T05:56:38.275Z,175
2017-04-25T05:57:03.727Z,175
2017-04-25T05:57:29.198Z,180
2017-04-25T05:57:54.653Z,185
2017-04-25T05:58:20.125Z,185
2017-04-25T05:58:45.610Z,180
2017-04-25T05:59:11.017Z,180
2017-04-25T05:59:36.484Z,185
2017-04-25T06:00:01.981Z,195
2017-04-25T06:00:27.478Z,205
2017-04-25T06:00:52.902Z,210
2017-04-25T06:01:18.422Z,210
2017-04-25T06:01:43.908Z,210
2017-04-25T06:02:09.348Z,210
2017-04-25T06:02:34.820Z,205
2017-04-25T06:03:00.314Z,195
2017-04-25T06:03:25.757Z,190
2017-04-25T06:03:51.268Z,180
2017-04-25T06:04:16.700Z,165
2017-04-25T06:04:42.214Z,160
2017-04-25T06:05:07.693Z,155
2017-04-25T06:05:33.127Z,155
2017-04-25T06:05:58.600Z,160
2017-04-25T06:06:24.072Z,170
2017-04-25T06:06:49.555Z,175
2017-04-25T06:07:15.016Z,175
2017-04-25T06:07:40.475Z,170
2017-04-25T06:08:05.932Z,170
2017-04-25T06:08:31.404Z,175
2017-04-25T06:08:56.895Z,185
2017-04-25T06:09:22.379Z,180
2017-04-25T06:09:47.845Z,185
2017-04-25T06:10:13.339Z,185
2017-04-25T06:10:38.781Z,190
2017-04-25T06:11:04.250Z,200
2017-04-25T06:11:29.765Z,200
2017-04-25T06:11:55.232Z,195
2017-04-25T06:12:20.699Z,195
2017-04-25T06:12:46.164Z,195
2017-04-25T06:13:11.617Z,195
2017-04-25T06:13:37.117Z,195
2017-04-25T06:14:02.565Z,200
2017-04-25T06:14:28.034Z,200
2017-04-25T06:14:53.487Z,195
2017-04-25T06:15:18.984Z,190
2017-04-25T06:15:44.436Z,190
2017-04-25T06:16:09.898Z,190
2017-04-25T06:16:35.369Z,195
2017-04-25T06:17:00.840Z,195
2017-04-25T06:17:26.311Z,195
2017-04-25T06:17:51.795Z,190
2017-04-25T06:18:17.229Z,185
2017-04-25T06:18:42.693Z,185
2017-04-25T06:19:08.168Z,190
2017-04-25T06:19:33.655Z,195
2017-04-25T06:19:59.151Z,190
2017-04-25T06:20:24.629Z,185
2017-04-25T06:20:50.078Z,190
2017-04-25T06:21:15.528Z,195
2017-04-25T06:21:41.186Z,195
2017-04-25T06:22:06.674Z,200
2017-04-25T06:22:32.282Z,200
2017-04-25T06:22:58.072Z,200
2017-04-25T06:23:23.513Z,200
2017-04-25T06:23:49.194Z,200
2017-04-25T06:24:14.550Z,205
2017-04-25T06:24:40.038Z,205
2017-04-25T06:25:05.482Z,210
2017-04-25T06:25:30.955Z,220
2017-04-25T06:25:56.523Z,220
2017-04-25T06:26:21.931Z,220
2017-04-25T06:26:47.391Z,215
2017-04-25T06:27:12.847Z,210
2017-04-25T06:27:38.327Z,210
2017-04-25T06:28:03.800Z,210
2017-04-25T06:28:29.252Z,210
2017-04-25T06:28:54.774Z,210
2017-04-25T06:29:20.230Z,205
2017-04-25T06:29:45.701Z,210
2017-04-25T06:30:11.191Z,200
2017-04-25T06:30:36.695Z,195
2017-04-25T06:31:02.120Z,190
2017-04-25T06:31:27.604Z,185
2017-04-25T06:31:53.057Z,185
2017-04-25T06:32:18.535Z,180
2017-04-25T06:32:44.021Z,180
2017-04-25T06:33:09.501Z,175
2017-04-25T06:33:34.991Z,165
2017-04-25T06:34:00.455Z,160
2017-04-25T06:34:25.906Z,155
2017-04-25T06:34:51.395Z,150
2017-04-25T06:35:16.875Z,145
2017-04-25T06:35:42.311Z,135
2017-04-25T06:36:07.814Z,130
2017-04-25T06:36:33.271Z,130
2017-04-25T06:36:58.734Z,130
2017-04-25T06:37:24.221Z,135
2017-04-25T06:37:49.673Z,135
2017-04-25T06:38:15.212Z,135
2017-04-25T06:38:40.691Z,135
2017-04-25T06:39:06.161Z,140
2017-04-25T06:39:31.658Z,145
2017-04-25T06:39:57.075Z,150
2017-04-25T06:40:22.595Z,160
2017-04-25T06:40:48.101Z,165
2017-04-25T06:41:13.536Z,170
2017-04-25T06:41:38.992Z,170
2017-04-25T06:42:04.455Z,170
2017-04-25T06:42:29.930Z,175
2017-04-25T06:42:55.456Z,185
2017-04-25T06:43:20.829Z,185
2017-04-25T06:43:46.581Z,185
2017-04-25T06:44:12.060Z,190
2017-04-25T06:44:37.565Z,195
2017-04-25T06:45:03.012Z,190
2017-04-25T06:45:28.529Z,180
2017-04-25T06:45:54.035Z,170
2017-04-25T06:46:19.503Z,170
2017-04-25T06:46:44.967Z,175
2017-04-25T06:47:10.471Z,185
2017-04-25T06:47:36.002Z,185
2017-04-25T06:48:01.394Z,180
2017-04-25T06:48:26.846Z,175
2017-04-25T06:48:52.327Z,180
2017-04-25T06:49:17.797Z,185
2017-04-25T06:49:43.312Z,185
2017-04-25T06:50:08.737Z,170
2017-04-25T06:50:34.216Z,165
2017-04-25T06:50:59.692Z,165
2017-04-25T06:51:25.165Z,165
2017-04-25T06:51:50.640Z,165
2017-04-25T06:52:16.080Z,165
2017-04-25T06:52:41.526Z,160
2017-04-25T06:53:07.001Z,160
2017-04-25T06:53:32.472Z,165
2017-04-25T06:53:57.919Z,165
2017-04-25T06:54:23.446Z,160
2017-04-25T06:54:48.876Z,165
2017-04-25T06:55:14.356Z,160
2017-04-25T06:55:39.807Z,160
2017-04-25T06:56:05.277Z,160
2017-04-25T06:56:30.746Z,160
2017-04-25T06:56:56.192Z,155
2017-04-25T06:57:21.665Z,155
2017-04-25T06:57:47.138Z,155
2017-04-25T06:58:12.611Z,155
2017-04-25T06:58:38.097Z,155
2017-04-25T06:59:03.559Z,160
2017-04-25T06:59:29.025Z,160
2017-04-25T06:59:54.495Z,160
2017-04-25T07:00:19.933Z,165
2017-04-25T07:00:45.408Z,175
2017-04-25T07:01:10.853Z,180
2017-04-25T07:01:36.325Z,170
2017-04-25T07:02:01.793Z,170
2017-04-25T07:02:27.256Z,170
2017-04-25T07:02:52.723Z,180
2017-04-25T07:03:18.189Z,190
2017-04-25T07:03:43.692Z,195
2017-04-25T07:04:09.145Z,200
2017-04-25T07:04:34.702Z,195
2017-04-25T07:05:00.105Z,200
2017-04-25T07:05:25.592Z,200
2017-04-25T07:05:51.064Z,210
2017-04-25T07:06:16.521Z,230
2017-04-25T07:06:42.010Z,245
2017-04-25T07:07:07.503Z,280
2017-04-25T07:07:32.939Z,320
2017-04-25T07:07:58.419Z,325
2017-04-25T07:08:23.902Z,300
2017-04-25T07:08:49.382Z,275
2017-04-25T07:09:14.854Z,215
2017-04-25T07:09:40.320Z,190
2017-04-25T07:10:05.778Z,175
2017-04-25T07:10:31.273Z,185
2017-04-25T07:10:56.684Z,200
2017-04-25T07:11:22.184Z,225
2017-04-25T07:11:47.647Z,250
2017-04-25T07:12:13.131Z,295
2017-04-25T07:12:38.589Z,320
2017-04-25T07:13:04.067Z,300
2017-04-25T07:13:29.536Z,255
2017-04-25T07:13:55.014Z,245
2017-04-25T07:14:20.452Z,255
2017-04-25T07:14:45.925Z,250
2017-04-25T07:15:11.383Z,245
2017-04-25T07:15:36.837Z,235
2017-04-25T07:16:02.315Z,235
2017-04-25T07:16:27.762Z,225
2017-04-25T07:16:53.222Z,245
2017-04-25T07:17:18.696Z,255
2017-04-25T07:17:44.165Z,255
2017-04-25T07:18:09.640Z,250
2017-04-25T07:18:35.128Z,230
2017-04-25T07:19:00.596Z,215
2017-04-25T07:19:26.060Z,195
2017-04-25T07:19:51.533Z,190
2017-04-25T07:20:16.996Z,190
2017-04-25T07:20:42.481Z,200
2017-04-25T07:21:07.906Z,215
2017-04-25T07:21:33.387Z,215
2017-04-25T07:21:58.847Z,225
2017-04-25T07:22:24.298Z,220
2017-04-25T07:22:49.775Z,240
2017-04-25T07:23:15.329Z,270
2017-04-25T07:23:40.830Z,255
2017-04-25T07:24:06.324Z,235
2017-04-25T07:24:31.894Z,240
2017-04-25T07:24:57.367Z,255
2017-04-25T07:25:22.842Z,270
2017-04-25T07:25:48.340Z,290
2017-04-25T07:26:13.770Z,295
2017-04-25T07:26:39.250Z,270
2017-04-25T07:27:04.717Z,280
2017-04-25T07:27:30.192Z,300
2017-04-25T07:27:55.662Z,335
2017-04-25T07:28:21.121Z,350
2017-04-25T07:28:46.615Z,340
2017-04-25T07:29:12.097Z,320
2017-04-25T07:29:37.558Z,290
2017-04-25T07:30:03.028Z,290
2017-04-25T07:30:28.478Z,290
2017-04-25T07:30:53.958Z,305
2017-04-25T07:31:19.412Z,330
2017-04-25T07:31:44.918Z,340
2017-04-25T07:32:10.393Z,305
2017-04-25T07:32:35.878Z,280
2017-04-25T07:33:01.411Z,250
2017-04-25T07:33:26.912Z,250
2017-04-25T07:33:52.373Z,275
2017-04-25T07:34:17.823Z,270
2017-04-25T07:34:43.300Z,290
2017-04-25T07:35:08.799Z,310
2017-04-25T07:35:34.297Z,300
2017-04-25T07:35:59.779Z,265
2017-04-25T07:36:25.244Z,240
2017-04-25T07:36:50.701Z,245
2017-04-25T07:37:16.193Z,245
2017-04-25T07:37:41.664Z,270
2017-04-25T07:38:07.101Z,300
2017-04-25T07:38:32.562Z,285
2017-04-25T07:38:58.056Z,270
2017-04-25T07:39:23.514Z,270
2017-04-25T07:39:49.026Z,260
2017-04-25T07:40:14.487Z,220
2017-04-25T07:40:39.946Z,200
2017-04-25T07:41:05.431Z,175
2017-04-25T07:41:30.906Z,160
2017-04-25T07:41:56.390Z,160
2017-04-25T07:42:21.886Z,165
2017-04-25T07:42:47.502Z,165
2017-04-25T07:43:12.876Z,170
2017-04-25T07:43:38.419Z,170
2017-04-25T07:44:03.856Z,175
2017-04-25T07:44:29.329Z,190
2017-04-25T07:44:54.792Z,195
2017-04-25T07:45:20.233Z,195
2017-04-25T07:45:45.711Z,200
2017-04-25T07:46:11.189Z,195
2017-04-25T07:46:36.641Z,195
2017-04-25T07:47:02.104Z,195
2017-04-25T07:47:27.594Z,195
2017-04-25T07:47:53.077Z,205
2017-04-25T07:48:18.542Z,210
2017-04-25T07:48:44.007Z,220
2017-04-25T07:49:09.478Z,200
2017-04-25T07:49:34.966Z,200
2017-04-25T07:50:00.465Z,205
2017-04-25T07:50:25.937Z,220
2017-04-25T07:50:51.409Z,225
2017-04-25T07:51:16.915Z,240
2017-04-25T07:51:42.379Z,245
2017-04-25T07:52:07.851Z,240
2017-04-25T07:52:33.410Z,240
2017-04-25T07:52:58.906Z,240
2017-04-25T07:53:24.387Z,250
2017-04-25T07:53:50.008Z,270
2017-04-25T07:54:15.494Z,270
2017-04-25T07:54:40.972Z,255
2017-04-25T07:55:06.441Z,245
2017-04-25T07:55:31.930Z,260
2017-04-25T07:55:57.402Z,250
2017-04-25T07:56:22.851Z,250
2017-04-25T07:56:48.318Z,270
2017-04-25T07:57:13.801Z,300
2017-04-25T07:57:39.319Z,295
2017-04-25T07:58:04.766Z,270
2017-04-25T07:58:30.261Z,275
2017-04-25T07:58:55.714Z,280
2017-04-25T07:59:21.171Z,285
2017-04-25T07:59:46.638Z,270
2017-04-25T08:00:12.106Z,285
2017-04-25T08:00:37.585Z,300
2017-04-25T08:01:03.059Z,320
2017-04-25T08:01:28.519Z,330
2017-04-25T08:01:53.997Z,330
2017-04-25T08:02:19.490Z,335
2017-04-25T08:02:44.949Z,370
2017-04-25T08:03:10.401Z,380
2017-04-25T08:03:35.884Z,335
2017-04-25T08:04:01.339Z,300
2017-04-25T08:04:26.807Z,295
2017-04-25T08:04:52.268Z,270
2017-04-25T08:05:17.732Z,275
2017-04-25T08:05:43.207Z,280
2017-04-25T08:06:08.690Z,315
2017-04-25T08:06:34.168Z,330
2017-04-25T08:06:59.628Z,345
2017-04-25T08:07:25.119Z,335
2017-04-25T08:07:50.577Z,330
2017-04-25T08:08:16.047Z,325
2017-04-25T08:08:41.554Z,335
2017-04-25T08:09:07.015Z,320
2017-04-25T08:09:32.499Z,315
2017-04-25T08:09:57.972Z,300
2017-04-25T08:10:23.436Z,300
2017-04-25T08:10:48.883Z,285
2017-04-25T08:11:14.380Z,275
2017-04-25T08:11:39.856Z,275
2017-04-25T08:12:05.328Z,270
2017-04-25T08:12:30.818Z,285
2017-04-25T08:12:56.269Z,320
2017-04-25T08:13:21.767Z,355
2017-04-25T08:13:47.241Z,325
2017-04-25T08:14:12.718Z,300
2017-04-25T08:14:38.249Z,285
2017-04-25T08:15:03.694Z,275
2017-04-25T08:15:29.169Z,280
2017-04-25T08:15:54.701Z,295
2017-04-25T08:16:20.140Z,300
2017-04-25T08:16:45.600Z,310
2017-04-25T08:17:11.143Z,305
2017-04-25T08:17:36.621Z,315
2017-04-25T08:18:02.094Z,315
2017-04-25T08:18:27.547Z,305
2017-04-25T08:18:53.012Z,300
2017-04-25T08:19:18.510Z,285
2017-04-25T08:19:43.998Z,305
2017-04-25T08:20:09.432Z,315
2017-04-25T08:20:34.916Z,310
2017-04-25T08:21:00.416Z,305
2017-04-25T08:21:25.904Z,305
2017-04-25T08:21:51.388Z,330
2017-04-25T08:22:16.886Z,345
2017-04-25T08:22:42.366Z,345
2017-04-25T08:23:07.818Z,340
2017-04-25T08:23:33.269Z,340
2017-04-25T08:23:58.732Z,355
2017-04-25T08:24:24.209Z,390
2017-04-25T08:24:49.679Z,420
2017-04-25T08:25:15.132Z,435
2017-04-25T08:25:40.605Z,405
2017-04-25T08:26:06.087Z,355
2017-04-25T08:26:31.574Z,320
2017-04-25T08:26:57.052Z,290
2017-04-25T08:27:22.539Z,265
2017-04-25T08:27:48.023Z,280
2017-04-25T08:28:13.521Z,285
2017-04-25T08:28:38.986Z,300
2017-04-25T08:29:04.490Z,310
2017-04-25T08:29:29.962Z,305
2017-04-25T08:29:55.509Z,315
2017-04-25T08:30:20.993Z,325
2017-04-25T08:30:46.485Z,340
2017-04-25T08:31:11.941Z,320
2017-04-25T08:31:37.417Z,280
2017-04-25T08:32:02.873Z,260
2017-04-25T08:32:28.365Z,260
2017-04-25T08:32:53.844Z,275
2017-04-25T08:33:19.314Z,290
2017-04-25T08:33:44.754Z,295
2017-04-25T08:34:10.226Z,280
2017-04-25T08:34:35.718Z,265
2017-04-25T08:35:01.189Z,265
2017-04-25T08:35:26.726Z,255
2017-04-25T08:35:52.197Z,280
2017-04-25T08:36:17.755Z,305
2017-04-25T08:36:43.126Z,340
2017-04-25T08:37:08.595Z,375
2017-04-25T08:37:34.103Z,415
2017-04-25T08:37:59.600Z,445
2017-04-25T08:38:25.068Z,470
2017-04-25T08:38:50.558Z,490
2017-04-25T08:39:16.095Z,470
2017-04-25T08:39:41.558Z,460
2017-04-25T08:40:07.024Z,460
2017-04-25T08:40:32.552Z,440
2017-04-25T08:40:57.977Z,390
2017-04-25T08:41:23.465Z,355
2017-04-25T08:41:48.907Z,345
2017-04-25T08:42:14.417Z,340
2017-04-25T08:42:39.898Z,335
2017-04-25T08:43:05.388Z,330
2017-04-25T08:43:30.899Z,320
2017-04-25T08:43:56.366Z,315
2017-04-25T08:44:21.836Z,315
2017-04-25T08:44:47.266Z,320
2017-04-25T08:45:12.740Z,335
2017-04-25T08:45:38.222Z,355
2017-04-25T08:46:03.674Z,390
2017-04-25T08:46:29.158Z,430
2017-04-25T08:46:54.737Z,435
2017-04-25T08:47:20.343Z,445
2017-04-25T08:47:45.786Z,445
2017-04-25T08:48:11.283Z,440
2017-04-25T08:48:36.767Z,425
2017-04-25T08:49:02.203Z,415
2017-04-25T08:49:27.728Z,415
2017-04-25T08:49:53.173Z,395
2017-04-25T08:50:18.619Z,375
2017-04-25T08:50:44.113Z,365
2017-04-25T08:51:09.578Z,365
2017-04-25T08:51:35.068Z,365
2017-04-25T08:52:00.550Z,360
2017-04-25T08:52:26.013Z,365
2017-04-25T08:52:51.494Z,365
2017-04-25T08:53:17.001Z,355
2017-04-25T08:53:42.490Z,320
2017-04-25T08:54:07.911Z,300
2017-04-25T08:54:33.423Z,315
2017-04-25T08:54:58.890Z,330
2017-04-25T08:55:24.415Z,340
2017-04-25T08:55:49.871Z,385
2017-04-25T08:56:15.416Z,415
2017-04-25T08:56:40.910Z,430
2017-04-25T08:57:06.383Z,415
2017-04-25T08:57:31.842Z,400
2017-04-25T08:57:57.321Z,395
2017-04-25T08:58:22.773Z,400
2017-04-25T08:58:48.224Z,435
2017-04-25T08:59:13.712Z,430
2017-04-25T08:59:39.248Z,450
2017-04-25T09:00:04.715Z,445
2017-04-25T09:00:30.193Z,430
2017-04-25T09:00:55.668Z,415
2017-04-25T09:01:21.138Z,400
2017-04-25T09:01:46.596Z,410
2017-04-25T09:02:12.134Z,425
2017-04-25T09:02:37.626Z,450
2017-04-25T09:03:03.065Z,455
2017-04-25T09:03:28.534Z,425
2017-04-25T09:03:54.013Z,390
2017-04-25T09:04:19.461Z,370
2017-04-25T09:04:44.912Z,355
2017-04-25T09:05:10.407Z,325
2017-04-25T09:05:35.976Z,310
2017-04-25T09:06:01.458Z,300
2017-04-25T09:06:26.954Z,320
2017-04-25T09:06:52.401Z,350
2017-04-25T09:07:17.913Z,380
2017-04-25T09:07:43.403Z,415
2017-04-25T09:08:08.855Z,425
2017-04-25T09:08:34.324Z,425
2017-04-25T09:08:59.797Z,395
2017-04-25T09:09:25.286Z,370
2017-04-25T09:09:50.724Z,380
2017-04-25T09:10:16.201Z,365
2017-04-25T09:10:41.777Z,325
2017-04-25T09:11:07.151Z,300
2017-04-25T09:11:32.609Z,290
2017-04-25T09:11:58.068Z,285
2017-04-25T09:12:23.524Z,290
2017-04-25T09:12:48.976Z,290
2017-04-25T09:13:14.455Z,300
2017-04-25T09:13:39.922Z,330
2017-04-25T09:14:05.372Z,395
2017-04-25T09:14:30.856Z,455
2017-04-25T09:14:56.302Z,480
2017-04-25T09:15:21.788Z,490
2017-04-25T09:15:47.276Z,505
2017-04-25T09:16:12.755Z,500
2017-04-25T09:16:38.240Z,480
2017-04-25T09:17:03.692Z,505
2017-04-25T09:17:29.180Z,515
2017-04-25T09:17:54.638Z,495
2017-04-25T09:18:20.125Z,470
2017-04-25T09:18:45.602Z,435
2017-04-25T09:19:11.079Z,415
2017-04-25T09:19:36.617Z,415
2017-04-25T09:20:02.075Z,400
2017-04-25T09:20:27.553Z,385
2017-04-25T09:20:53.076Z,385
2017-04-25T09:21:18.567Z,390
2017-04-25T09:21:44.027Z,390
2017-04-25T09:22:09.516Z,365
2017-04-25T09:22:34.985Z,380
2017-04-25T09:23:00.449Z,420
2017-04-25T09:23:25.938Z,445
2017-04-25T09:23:51.422Z,445
2017-04-25T09:24:16.931Z,480
2017-04-25T09:24:42.385Z,480
2017-04-25T09:25:07.845Z,450
2017-04-25T09:25:33.364Z,440
2017-04-25T09:25:58.815Z,425
2017-04-25T09:26:24.302Z,415
2017-04-25T09:26:49.748Z,425
2017-04-25T09:27:15.203Z,450
2017-04-25T09:27:40.680Z,490
2017-04-25T09:28:06.147Z,520
2017-04-25T09:28:31.644Z,500
2017-04-25T09:28:57.101Z,480
2017-04-25T09:29:22.570Z,525
2017-04-25T09:29:48.075Z,525
2017-04-25T09:30:13.506Z,530
2017-04-25T09:30:38.989Z,520
2017-04-25T09:31:04.480Z,470
2017-04-25T09:31:29.982Z,435
2017-04-25T09:31:55.422Z,440
2017-04-25T09:32:20.909Z,460
2017-04-25T09:32:46.360Z,470
2017-04-25T09:33:11.859Z,460
2017-04-25T09:33:37.313Z,455
2017-04-25T09:34:02.807Z,435
2017-04-25T09:34:28.238Z,430
2017-04-25T09:34:53.703Z,420
2017-04-25T09:35:19.194Z,405
2017-04-25T09:35:44.717Z,380
2017-04-25T09:36:10.171Z,390
2017-04-25T09:36:35.638Z,410
2017-04-25T09:37:01.131Z,410
2017-04-25T09:37:26.581Z,385
2017-04-25T09:37:52.037Z,375
2017-04-25T09:38:17.535Z,375
2017-04-25T09:38:42.998Z,395
2017-04-25T09:39:08.453Z,400
2017-04-25T09:39:33.924Z,425
2017-04-25T09:39:59.422Z,470
2017-04-25T09:40:24.872Z,500
2017-04-25T09:40:50.387Z,505
2017-04-25T09:41:15.841Z,490
2017-04-25T09:41:41.351Z,505
2017-04-25T09:42:06.801Z,505
2017-04-25T09:42:32.279Z,510
2017-04-25T09:42:57.780Z,510
2017-04-25T09:43:23.212Z,520
2017-04-25T09:43:48.683Z,560
2017-04-25T09:44:14.202Z,540
2017-04-25T09:44:39.664Z,500
2017-04-25T09:45:05.114Z,480
2017-04-25T09:45:30.628Z,485
2017-04-25T09:45:56.062Z,490
2017-04-25T09:46:21.526Z,470
2017-04-25T09:46:46.986Z,425
2017-04-25T09:47:12.455Z,430
2017-04-25T09:47:37.927Z,445
2017-04-25T09:48:03.398Z,470
2017-04-25T09:48:28.874Z,480
2017-04-25T09:48:54.332Z,485
2017-04-25T09:49:19.826Z,505
2017-04-25T09:49:45.275Z,475
2017-04-25T09:50:10.748Z,455
2017-04-25T09:50:36.229Z,450
2017-04-25T09:51:01.693Z,435
2017-04-25T09:51:27.152Z,430
2017-04-25T09:51:52.643Z,430
2017-04-25T09:52:18.122Z,430
2017-04-25T09:52:43.591Z,445
2017-04-25T09:53:09.133Z,475
2017-04-25T09:53:34.584Z,490
2017-04-25T09:54:00.038Z,510
2017-04-25T09:54:25.526Z,500
2017-04-25T09:54:51.028Z,475
2017-04-25T09:55:16.565Z,465
2017-04-25T09:55:41.986Z,470
2017-04-25T09:56:07.459Z,455
2017-04-25T09:56:32.936Z,440
2017-04-25T09:56:58.402Z,445
2017-04-25T09:57:23.890Z,465
2017-04-25T09:57:49.378Z,480
2017-04-25T09:58:14.863Z,520
2017-04-25T09:58:40.318Z,525
2017-04-25T09:59:05.821Z,535